Time;durP1;ratioP1;P1;durP2;ratioP2;P2;SDS_P1;SDS_P2;PMS_P1;PMS_P2;Temp;Humidity;BMP_temperature;BMP_pressure;BME280_temperature;BME280_humidity;BME280_pressure;Samples;Min_cycle;Max_cycle;Signal;HPM_P1;HPM_P2
2023/09/15 00:00:20;;;;;;;18.00;9.70;;;;;;;16.82;100.00;100912.03;105865;1255;62265;-73
2023/09/15 00:02:48;;;;;;;16.60;11.10;;;;;;;16.79;100.00;100909.64;105839;1250;59533;-73
2023/09/15 00:05:15;;;;;;;17.10;11.10;;;;;;;16.76;100.00;100911.45;105902;1249;73173;-72
2023/09/15 00:07:42;;;;;;;15.50;9.60;;;;;;;16.73;100.00;100908.49;105882;1249;63249;-70
2023/09/15 00:10:14;;;;;;;16.20;10.80;;;;;;;16.72;100.00;100909.16;105847;1250;72738;-70
2023/09/15 00:12:42;;;;;;;23.40;11.90;;;;;;;16.71;100.00;100907.59;105898;1250;61307;-70
2023/09/15 00:15:10;;;;;;;21.70;12.80;;;;;;;16.71;100.00;100905.98;105972;1256;59695;-70
2023/09/15 00:17:39;;;;;;;16.70;12.30;;;;;;;16.73;100.00;100904.80;106036;1254;73587;-70
2023/09/15 00:20:14;;;;;;;20.90;10.70;;;;;;;16.75;100.00;100900.19;106091;1255;62629;-70
2023/09/15 00:22:48;;;;;;;16.80;10.10;;;;;;;16.77;100.00;100902.54;105837;1255;71252;-72
2023/09/15 00:25:20;;;;;;;20.60;11.40;;;;;;;16.78;100.00;100899.80;105905;1250;60412;-71
2023/09/15 00:27:49;;;;;;;20.00;11.50;;;;;;;16.79;100.00;100901.88;105919;1250;60667;-74
2023/09/15 00:30:17;;;;;;;23.20;13.40;;;;;;;16.79;100.00;100904.31;105798;1250;71895;-70
2023/09/15 00:32:46;;;;;;;21.60;12.50;;;;;;;16.81;100.00;100907.55;105992;1256;63926;-72
2023/09/15 00:35:16;;;;;;;23.60;12.70;;;;;;;16.84;100.00;100910.67;105810;1256;72561;-72
2023/09/15 00:37:46;;;;;;;22.50;13.50;;;;;;;16.88;100.00;100910.66;105765;1256;61652;-70
2023/09/15 00:40:14;;;;;;;18.80;14.20;;;;;;;16.93;100.00;100911.65;105669;1251;59765;-73
2023/09/15 00:42:46;;;;;;;18.30;13.10;;;;;;;16.99;100.00;100912.61;105944;1250;73181;-72
2023/09/15 00:45:15;;;;;;;21.50;12.80;;;;;;;17.04;100.00;100914.50;105994;1250;62663;-71
2023/09/15 00:47:43;;;;;;;19.60;12.80;;;;;;;17.09;100.00;100917.39;106049;1251;71902;-71
2023/09/15 00:50:14;;;;;;;19.30;12.90;;;;;;;17.14;100.00;100924.40;105979;1250;62290;-72
2023/09/15 00:52:49;;;;;;;18.60;13.50;;;;;;;17.19;100.00;100923.63;105743;1250;59990;-71
2023/09/15 00:55:19;;;;;;;22.50;14.00;;;;;;;17.24;100.00;100925.39;105879;1250;71870;-74
2023/09/15 00:57:48;;;;;;;19.30;13.20;;;;;;;17.27;100.00;100922.85;105973;1253;62535;-70
2023/09/15 01:00:17;;;;;;;17.50;12.00;;;;;;;17.30;100.00;100929.96;106036;1250;72463;-72
2023/09/15 01:02:45;;;;;;;21.90;12.60;;;;;;;17.33;100.00;100925.30;105583;1258;60501;-74
2023/09/15 01:05:20;;;;;;;21.90;12.10;;;;;;;17.37;100.00;100928.20;105962;1250;59987;-72
2023/09/15 01:07:52;;;;;;;24.90;12.40;;;;;;;17.40;100.00;100928.64;106005;1255;74196;-72
2023/09/15 01:10:22;;;;;;;19.00;12.10;;;;;;;17.43;100.00;100925.92;105873;1250;61921;-70
2023/09/15 01:12:52;;;;;;;18.90;12.30;;;;;;;17.46;100.00;100927.23;105918;1250;71137;-68
2023/09/15 01:15:30;;;;;;;14.90;11.20;;;;;;;17.48;100.00;100931.79;105937;1256;60413;-70
2023/09/15 01:18:18;;;;;;;19.70;11.50;;;;;;;17.52;100.00;100933.48;105964;1250;59595;-71
2023/09/15 01:21:04;;;;;;;17.60;12.10;;;;;;;17.55;100.00;100932.34;105682;1256;72316;-70
2023/09/15 01:23:56;;;;;;;19.10;11.60;;;;;;;17.57;100.00;100936.21;105938;1254;63567;-70
2023/09/15 01:26:24;;;;;;;20.70;11.70;;;;;;;17.60;100.00;100933.66;105904;1251;72987;-72
2023/09/15 01:29:23;;;;;;;19.70;11.60;;;;;;;17.62;100.00;100944.11;105897;1256;62610;-71
2023/09/15 01:31:51;;;;;;;18.70;11.70;;;;;;;17.65;100.00;100948.15;106042;1249;59641;-71
2023/09/15 01:34:18;;;;;;;15.80;10.80;;;;;;;17.66;100.00;100953.09;105749;1250;73286;-70
2023/09/15 01:36:46;;;;;;;18.70;11.70;;;;;;;17.68;100.00;100948.59;105989;1256;63626;-71
2023/09/15 01:39:13;;;;;;;18.00;12.30;;;;;;;17.69;100.00;100952.57;106072;1250;72606;-70
2023/09/15 01:41:41;;;;;;;14.40;11.00;;;;;;;17.69;100.00;100953.09;106040;1254;61755;-70
2023/09/15 01:44:08;;;;;;;24.00;13.20;;;;;;;17.68;100.00;100952.08;105894;1250;60118;-70
2023/09/15 01:46:36;;;;;;;20.00;11.50;;;;;;;17.67;100.00;100948.46;105840;1250;73070;-70
2023/09/15 01:49:04;;;;;;;19.80;12.70;;;;;;;17.67;100.00;100950.62;105877;1256;62530;-72
2023/09/15 01:51:31;;;;;;;16.60;12.30;;;;;;;17.66;100.00;100946.04;105926;1256;71539;-72
2023/09/15 01:53:59;;;;;;;17.40;11.40;;;;;;;17.67;100.00;100947.96;106082;1249;61206;-72
2023/09/15 01:56:28;;;;;;;18.90;12.50;;;;;;;17.66;100.00;100945.55;105856;1251;60587;-71
2023/09/15 01:58:56;;;;;;;18.80;12.50;;;;;;;17.66;100.00;100945.70;105784;1252;72748;-71
2023/09/15 02:01:23;;;;;;;17.70;12.10;;;;;;;17.66;100.00;100941.48;105783;1250;62500;-70
2023/09/15 02:03:51;;;;;;;18.20;12.60;;;;;;;17.66;100.00;100935.34;105999;1254;70628;-70
2023/09/15 02:06:18;;;;;;;19.00;12.00;;;;;;;17.65;100.00;100938.91;105904;1251;61640;-73
2023/09/15 02:08:46;;;;;;;17.10;11.60;;;;;;;17.64;100.00;100941.30;105901;1253;60491;-71
2023/09/15 02:11:14;;;;;;;18.40;11.90;;;;;;;17.62;100.00;100933.17;105879;1251;72497;-72
2023/09/15 02:13:42;;;;;;;17.40;10.70;;;;;;;17.59;100.00;100933.38;105942;1256;62998;-71
2023/09/15 02:16:11;;;;;;;16.80;11.70;;;;;;;17.56;100.00;100931.29;105740;1250;72718;-72
2023/09/15 02:18:40;;;;;;;15.60;12.00;;;;;;;17.55;100.00;100929.01;105962;1251;60678;-73
2023/09/15 02:21:07;;;;;;;18.60;11.90;;;;;;;17.52;100.00;100918.42;105861;1251;60610;-70
2023/09/15 02:23:35;;;;;;;16.90;13.00;;;;;;;17.50;100.00;100914.70;105856;1255;72663;-74
2023/09/15 02:26:04;;;;;;;18.40;12.60;;;;;;;17.49;100.00;100922.77;105883;1255;62530;-71
2023/09/15 02:28:32;;;;;;;17.40;11.40;;;;;;;17.48;100.00;100928.52;105865;1251;71126;-70
2023/09/15 02:31:03;;;;;;;18.20;12.40;;;;;;;17.48;100.00;100927.13;105700;1250;61691;-75
2023/09/15 02:33:32;;;;;;;19.90;13.40;;;;;;;17.46;100.00;100920.36;105759;1256;60368;-71
2023/09/15 02:35:59;;;;;;;20.70;13.40;;;;;;;17.43;100.00;100915.46;105964;1254;73869;-70
2023/09/15 02:38:27;;;;;;;17.50;13.80;;;;;;;17.39;100.00;100912.25;109749;1250;63920;-70
2023/09/15 02:40:56;;;;;;;20.60;13.10;;;;;;;17.37;100.00;100915.95;109704;1249;72665;-70
2023/09/15 02:43:24;;;;;;;19.90;13.40;;;;;;;17.37;100.00;100914.23;109749;1251;60392;-70
2023/09/15 02:45:51;;;;;;;21.20;16.60;;;;;;;17.36;100.00;100911.13;109728;1250;59999;-70
2023/09/15 02:48:19;;;;;;;21.20;14.10;;;;;;;17.35;100.00;100917.16;109778;1251;73866;-70
2023/09/15 02:50:47;;;;;;;20.00;14.90;;;;;;;17.35;100.00;100912.23;109808;1250;62312;-69
2023/09/15 02:53:14;;;;;;;19.10;12.90;;;;;;;17.35;100.00;100909.11;109769;1250;72739;-70
2023/09/15 02:55:42;;;;;;;26.60;15.30;;;;;;;17.34;100.00;100904.57;109639;1250;61756;-70
2023/09/15 02:58:09;;;;;;;20.30;14.70;;;;;;;17.33;100.00;100908.89;109754;1250;58333;-70
2023/09/15 03:00:37;;;;;;;20.50;14.60;;;;;;;17.33;100.00;100912.09;109689;1249;72823;-70
2023/09/15 03:03:05;;;;;;;20.50;14.20;;;;;;;17.34;100.00;100913.76;109676;1250;64182;-68
2023/09/15 03:05:32;;;;;;;21.10;13.90;;;;;;;17.34;100.00;100913.75;109783;1250;72817;-70
2023/09/15 03:08:00;;;;;;;23.10;15.40;;;;;;;17.34;100.00;100911.44;109846;1249;61728;-70
2023/09/15 03:10:27;;;;;;;19.70;15.30;;;;;;;17.34;100.00;100908.44;109825;1249;60258;-70
2023/09/15 03:12:55;;;;;;;19.60;15.50;;;;;;;17.34;100.00;100905.12;109765;1250;73866;-70
2023/09/15 03:15:23;;;;;;;23.30;15.70;;;;;;;17.34;100.00;100902.48;109690;1250;64205;-69
2023/09/15 03:17:53;;;;;;;22.90;15.20;;;;;;;17.34;100.00;100906.29;109677;1250;71480;-69
2023/09/15 03:20:21;;;;;;;15.50;13.10;;;;;;;17.37;100.00;100903.62;109815;1250;61724;-70
2023/09/15 03:22:50;;;;;;;16.20;14.60;;;;;;;17.38;100.00;100892.34;109696;1249;60226;-69
2023/09/15 03:25:18;;;;;;;21.30;17.60;;;;;;;17.37;100.00;100885.56;109684;1250;74297;-70
2023/09/15 03:27:46;;;;;;;27.10;18.70;;;;;;;17.37;100.00;100878.84;109671;1251;61812;-70
2023/09/15 03:30:13;;;;;;;21.40;16.70;;;;;;;17.37;100.00;100881.66;109764;1250;71769;-70
2023/09/15 03:32:41;;;;;;;19.90;17.20;;;;;;;17.38;100.00;100884.39;109662;1250;60501;-70
2023/09/15 03:35:08;;;;;;;25.20;19.30;;;;;;;17.40;100.00;100881.76;109817;1250;58953;-70
2023/09/15 03:37:36;;;;;;;23.70;17.90;;;;;;;17.42;100.00;100882.91;109749;1250;72610;-71
2023/09/15 03:40:05;;;;;;;24.60;19.40;;;;;;;17.41;100.00;100885.79;109730;1251;63917;-69
2023/09/15 03:42:34;;;;;;;26.10;18.90;;;;;;;17.41;100.00;100902.23;109685;1250;72960;-69
2023/09/15 03:45:01;;;;;;;31.80;24.00;;;;;;;17.43;100.00;100931.26;109670;1251;60833;-70
2023/09/15 03:47:28;;;;;;;31.00;23.50;;;;;;;17.43;100.00;100960.38;109785;1249;60070;-70
2023/09/15 03:49:56;;;;;;;26.40;19.50;;;;;;;17.43;100.00;100974.38;109762;1254;72660;-71
2023/09/15 03:52:24;;;;;;;26.60;19.50;;;;;;;17.39;100.00;100962.77;109688;1250;63652;-72
2023/09/15 03:54:52;;;;;;;26.10;19.00;;;;;;;17.37;100.00;100943.72;109728;1250;71988;-71
2023/09/15 03:57:19;;;;;;;24.90;19.20;;;;;;;17.33;100.00;100947.06;109751;1254;60381;-72
2023/09/15 03:59:47;;;;;;;26.20;17.50;;;;;;;17.24;100.00;100948.84;109686;1250;58819;-71
2023/09/15 04:02:14;;;;;;;25.80;16.90;;;;;;;17.15;100.00;100952.80;109693;1249;73891;-71
2023/09/15 04:04:41;;;;;;;22.80;17.40;;;;;;;17.07;100.00;100953.30;109694;1250;62665;-71
2023/09/15 04:07:09;;;;;;;20.10;17.20;;;;;;;16.99;100.00;100944.36;109747;1254;71180;-71
2023/09/15 04:09:36;;;;;;;18.90;16.90;;;;;;;16.93;100.00;100945.07;109630;1251;61862;-69
2023/09/15 04:12:04;;;;;;;20.80;16.70;;;;;;;16.87;100.00;100951.02;109800;1250;59352;-71
2023/09/15 04:14:34;;;;;;;26.10;17.50;;;;;;;16.85;100.00;100950.15;109769;1251;73945;-70
2023/09/15 04:17:04;;;;;;;23.20;16.50;;;;;;;16.84;100.00;100950.54;109745;1250;62447;-71
2023/09/15 04:19:32;;;;;;;22.00;17.50;;;;;;;16.84;100.00;100950.27;109651;1254;71396;-71
2023/09/15 04:22:00;;;;;;;22.70;16.50;;;;;;;16.85;100.00;100951.01;109671;1251;62064;-71
2023/09/15 04:24:28;;;;;;;19.30;16.40;;;;;;;16.86;100.00;100945.85;109751;1249;58795;-70
2023/09/15 04:26:56;;;;;;;20.60;18.40;;;;;;;16.86;100.00;100943.67;109647;1249;73976;-71
2023/09/15 04:29:23;;;;;;;20.50;17.90;;;;;;;16.87;100.00;100943.95;109677;1250;62453;-71
2023/09/15 04:31:51;;;;;;;23.90;18.10;;;;;;;16.87;100.00;100947.09;109668;1253;72173;-70
2023/09/15 04:34:19;;;;;;;19.40;17.40;;;;;;;16.88;100.00;100946.71;109694;1251;62004;-70
2023/09/15 04:36:46;;;;;;;19.90;17.70;;;;;;;16.88;100.00;100943.30;109718;1250;60053;-71
2023/09/15 04:39:14;;;;;;;23.20;18.40;;;;;;;16.89;100.00;100938.35;109608;1251;73869;-71
2023/09/15 04:41:42;;;;;;;23.60;18.10;;;;;;;16.89;100.00;100935.98;109696;1251;62425;-70
2023/09/15 04:44:10;;;;;;;23.20;18.00;;;;;;;16.90;100.00;100936.48;109657;1250;72872;-71
2023/09/15 04:46:37;;;;;;;18.90;16.90;;;;;;;16.92;100.00;100931.18;109637;1252;61699;-72
2023/09/15 04:49:05;;;;;;;23.90;21.30;;;;;;;16.96;100.00;100933.87;109742;1251;59450;-71
2023/09/15 04:51:33;;;;;;;22.70;18.60;;;;;;;16.99;100.00;100925.98;109662;1249;73851;-71
2023/09/15 04:54:01;;;;;;;20.60;17.00;;;;;;;17.05;100.00;100922.54;109699;1250;63640;-70
2023/09/15 04:56:30;;;;;;;21.40;17.90;;;;;;;17.10;100.00;100919.81;109676;1250;71897;-72
2023/09/15 04:58:58;;;;;;;20.90;18.80;;;;;;;17.15;100.00;100916.41;109611;1251;63907;-70
2023/09/15 05:01:26;;;;;;;21.90;18.70;;;;;;;17.19;100.00;100911.27;109720;1251;60247;-72
2023/09/15 05:03:53;;;;;;;21.30;17.70;;;;;;;17.23;100.00;100910.58;109641;1250;73833;-71
2023/09/15 05:06:21;;;;;;;22.60;18.90;;;;;;;17.27;100.00;100910.08;109750;1251;62453;-71
2023/09/15 05:08:49;;;;;;;21.40;18.70;;;;;;;17.31;100.00;100905.69;109670;1256;73965;-72
2023/09/15 05:11:18;;;;;;;22.60;19.20;;;;;;;17.35;100.00;100904.64;109714;1250;60918;-71
2023/09/15 05:13:46;;;;;;;18.40;16.50;;;;;;;17.39;100.00;100901.84;109717;1250;59216;-70
2023/09/15 05:16:16;;;;;;;19.90;17.80;;;;;;;17.44;100.00;100907.29;109638;1249;73599;-71
2023/09/15 05:18:44;;;;;;;19.00;16.30;;;;;;;17.47;100.00;100909.80;109682;1251;62416;-70
2023/09/15 05:21:12;;;;;;;17.40;15.20;;;;;;;17.52;100.00;100915.58;109662;1251;71088;-71
2023/09/15 05:23:39;;;;;;;19.40;17.30;;;;;;;17.57;100.00;100918.52;109657;1251;61686;-70
2023/09/15 05:26:08;;;;;;;21.10;17.40;;;;;;;17.62;100.00;100920.77;109691;1251;58961;-69
2023/09/15 05:28:35;;;;;;;19.30;17.20;;;;;;;17.67;100.00;100924.42;109741;1251;72161;-71
2023/09/15 05:31:02;;;;;;;21.00;16.60;;;;;;;17.71;100.00;100929.73;109709;1250;62500;-72
2023/09/15 05:33:31;;;;;;;20.90;17.80;;;;;;;17.76;100.00;100933.56;109739;1251;72109;-72
2023/09/15 05:35:58;;;;;;;18.70;16.40;;;;;;;17.80;100.00;100935.88;109717;1250;60412;-70
2023/09/15 05:38:26;;;;;;;19.00;16.10;;;;;;;17.84;100.00;100940.00;109760;1250;59248;-71
2023/09/15 05:40:55;;;;;;;19.20;17.20;;;;;;;17.85;100.00;100942.50;109650;1251;72668;-70
2023/09/15 05:43:23;;;;;;;19.00;16.50;;;;;;;17.87;100.00;100942.91;109779;1251;63691;-72
2023/09/15 05:45:51;;;;;;;20.40;18.20;;;;;;;17.88;100.00;100949.21;109741;1251;71387;-71
2023/09/15 05:48:22;;;;;;;22.00;18.50;;;;;;;17.87;100.00;100948.36;109661;1251;60488;-71
2023/09/15 05:50:50;;;;;;;18.50;16.50;;;;;;;17.87;100.00;100948.59;109723;1251;60037;-70
2023/09/15 05:53:18;;;;;;;17.40;15.70;;;;;;;17.87;100.00;100943.31;109715;1249;72606;-71
2023/09/15 05:55:45;;;;;;;19.70;16.40;;;;;;;17.85;100.00;100944.13;109740;1251;65693;-70
2023/09/15 05:58:13;;;;;;;19.00;15.70;;;;;;;17.84;100.00;100943.36;109726;1250;72096;-70
2023/09/15 06:00:41;;;;;;;18.80;16.50;;;;;;;17.84;100.00;100944.95;109720;1251;60811;-71
2023/09/15 06:03:09;;;;;;;17.00;15.30;;;;;;;17.84;100.00;100945.82;109766;1250;60546;-70
2023/09/15 06:05:37;;;;;;;19.50;17.50;;;;;;;17.84;100.00;100953.05;109733;1250;73841;-72
2023/09/15 06:08:06;;;;;;;20.90;18.50;;;;;;;17.85;100.00;100946.63;109747;1251;62254;-71
2023/09/15 06:10:39;;;;;;;18.80;17.00;;;;;;;17.86;100.00;100949.73;109711;1250;72703;-74
2023/09/15 06:13:07;;;;;;;20.60;16.50;;;;;;;17.87;100.00;100952.64;109733;1251;62076;-71
2023/09/15 06:15:35;;;;;;;19.40;17.40;;;;;;;17.88;100.00;100951.29;109789;1251;58683;-71
2023/09/15 06:18:03;;;;;;;20.90;18.70;;;;;;;17.90;100.00;100951.46;109852;1249;73948;-72
2023/09/15 06:20:31;;;;;;;21.60;17.90;;;;;;;17.93;100.00;100951.95;109775;1249;62386;-71
2023/09/15 06:22:59;;;;;;;19.10;17.20;;;;;;;17.95;100.00;100950.34;109714;1249;72677;-72
2023/09/15 06:25:26;;;;;;;21.10;18.90;;;;;;;17.97;100.00;100948.42;109699;1251;61745;-71
2023/09/15 06:27:54;;;;;;;19.80;17.80;;;;;;;18.00;100.00;100948.66;109750;1251;58147;-72
2023/09/15 06:30:33;;;;;;;21.30;19.00;;;;;;;18.03;100.00;100948.04;109708;1251;73684;-71
2023/09/15 06:33:01;;;;;;;20.30;18.50;;;;;;;18.05;100.00;100947.23;109766;1250;62450;-71
2023/09/15 06:35:28;;;;;;;25.10;18.90;;;;;;;18.07;100.00;100942.41;109670;1251;71591;-71
2023/09/15 06:37:56;;;;;;;22.00;18.70;;;;;;;18.09;100.00;100945.96;109707;1249;59506;-70
2023/09/15 06:40:24;;;;;;;20.40;18.50;;;;;;;18.11;100.00;100942.94;109758;1249;62229;-71
2023/09/15 06:42:51;;;;;;;21.80;19.20;;;;;;;18.14;100.00;100939.73;109699;1251;74064;-71
2023/09/15 06:45:18;;;;;;;22.00;19.10;;;;;;;18.15;100.00;100938.68;109778;1249;63729;-71
2023/09/15 06:47:46;;;;;;;19.60;17.50;;;;;;;18.18;100.00;100938.07;109748;1250;71184;-72
2023/09/15 06:50:14;;;;;;;24.70;22.00;;;;;;;18.21;100.00;100939.94;109716;1250;59453;-71
2023/09/15 06:52:41;;;;;;;21.70;19.20;;;;;;;18.24;100.00;100941.78;109715;1251;58768;-72
2023/09/15 06:55:09;;;;;;;23.30;21.00;;;;;;;18.27;100.00;100940.67;109655;1249;72327;-72
2023/09/15 06:57:36;;;;;;;25.40;22.90;;;;;;;18.30;100.00;100944.32;109752;1250;63815;-69
2023/09/15 07:00:04;;;;;;;25.80;22.50;;;;;;;18.32;100.00;100940.41;109710;1250;71247;-71
2023/09/15 07:02:31;;;;;;;24.70;22.10;;;;;;;18.34;100.00;100943.95;109736;1250;61658;-71
2023/09/15 07:04:59;;;;;;;25.40;19.00;;;;;;;18.38;100.00;100948.38;109748;1250;59486;-71
2023/09/15 07:07:26;;;;;;;24.10;21.70;;;;;;;18.42;100.00;100945.55;109735;1251;72811;-71
2023/09/15 07:09:54;;;;;;;25.60;23.20;;;;;;;18.45;100.00;100943.49;109753;1250;62432;-71
2023/09/15 07:12:21;;;;;;;25.30;22.80;;;;;;;18.50;100.00;100942.95;109665;1251;71434;-71
2023/09/15 07:14:52;;;;;;;26.20;23.00;;;;;;;18.53;100.00;100944.63;109694;1250;61793;-72
2023/09/15 07:17:20;;;;;;;25.20;22.60;;;;;;;18.55;100.00;100943.73;109927;1251;58680;-71
2023/09/15 07:19:47;;;;;;;25.10;22.50;;;;;;;18.56;100.00;100945.52;109707;1251;73828;-71
2023/09/15 07:22:15;;;;;;;26.50;23.80;;;;;;;18.57;100.00;100944.38;109755;1249;64034;-71
2023/09/15 07:24:43;;;;;;;25.10;22.20;;;;;;;18.57;100.00;100940.13;109688;1249;71428;-71
2023/09/15 07:27:10;;;;;;;24.60;22.10;;;;;;;18.57;100.00;100936.50;109686;1251;63350;-73
2023/09/15 07:29:38;;;;;;;27.00;24.10;;;;;;;18.55;100.00;100929.02;109757;1250;59007;-73
2023/09/15 07:32:06;;;;;;;31.10;25.60;;;;;;;18.53;100.00;100919.67;109822;1250;72653;-73
2023/09/15 07:34:34;;;;;;;26.60;23.90;;;;;;;18.51;100.00;100924.42;109753;1251;62496;-74
2023/09/15 07:37:02;;;;;;;27.00;24.20;;;;;;;18.49;100.00;100921.54;109686;1250;72757;-74
2023/09/15 07:39:30;;;;;;;27.60;24.60;;;;;;;18.49;100.00;100922.32;109754;1249;60409;-73
2023/09/15 07:41:57;;;;;;;26.90;24.30;;;;;;;18.49;100.00;100923.21;109744;1249;62419;-74
2023/09/15 07:44:25;;;;;;;27.50;24.60;;;;;;;18.48;100.00;100917.98;109732;1250;73695;-73
2023/09/15 07:46:52;;;;;;;27.50;25.00;;;;;;;18.48;100.00;100916.56;109722;1250;62576;-72
2023/09/15 07:49:20;;;;;;;26.90;24.30;;;;;;;18.49;100.00;100917.71;109739;1250;72758;-73
2023/09/15 07:51:48;;;;;;;28.00;25.20;;;;;;;18.50;100.00;100916.68;109692;1251;61908;-73
2023/09/15 07:54:16;;;;;;;29.30;25.80;;;;;;;18.52;100.00;100920.10;109755;1251;59081;-74
2023/09/15 07:56:44;;;;;;;31.20;27.90;;;;;;;18.54;100.00;100924.88;109722;1249;72595;-73
2023/09/15 07:59:13;;;;;;;30.70;27.70;;;;;;;18.56;100.00;100930.30;109763;1250;63720;-73
2023/09/15 08:01:41;;;;;;;31.40;28.40;;;;;;;18.59;100.00;100929.23;109732;1250;72615;-73
2023/09/15 08:04:08;;;;;;;28.40;25.70;;;;;;;18.61;100.00;100929.73;109684;1251;63265;-75
2023/09/15 08:06:36;;;;;;;29.80;27.00;;;;;;;18.62;100.00;100924.27;109865;1249;60191;-72
2023/09/15 08:09:04;;;;;;;30.40;27.60;;;;;;;18.64;100.00;100923.40;109761;1250;72647;-73
2023/09/15 08:11:34;;;;;;;29.60;25.50;;;;;;;18.67;100.00;100916.45;109696;1249;61904;-73
2023/09/15 08:14:01;;;;;;;27.30;24.70;;;;;;;18.70;100.00;100911.73;109782;1250;71446;-73
2023/09/15 08:16:29;;;;;;;28.70;26.00;;;;;;;18.74;100.00;100915.52;109720;1250;60449;-73
2023/09/15 08:18:58;;;;;;;28.20;25.40;;;;;;;18.78;100.00;100921.20;109693;1251;58776;-72
2023/09/15 08:21:26;;;;;;;28.60;25.90;;;;;;;18.80;100.00;100920.55;109763;1250;72701;-73
2023/09/15 08:23:54;;;;;;;28.10;25.40;;;;;;;18.86;100.00;100919.94;109845;1250;62449;-72
2023/09/15 08:26:25;;;;;;;28.20;25.70;;;;;;;18.94;100.00;100923.83;109687;1250;72473;-73
2023/09/15 08:29:05;;;;;;;27.40;24.60;;;;;;;19.04;100.00;100926.40;109615;1250;60641;-73
2023/09/15 08:31:35;;;;;;;27.70;25.10;;;;;;;19.13;100.00;100923.71;109683;1249;59933;-72
2023/09/15 08:34:03;;;;;;;27.00;24.40;;;;;;;19.20;100.00;100927.44;109692;1251;74291;-73
2023/09/15 08:36:31;;;;;;;28.90;25.80;;;;;;;19.26;100.00;100921.98;109744;1250;64826;-73
2023/09/15 08:38:59;;;;;;;26.80;24.20;;;;;;;19.28;100.00;100922.09;109714;1249;72420;-73
2023/09/15 08:41:30;;;;;;;27.60;25.10;;;;;;;19.30;100.00;100913.80;109718;1249;61842;-73
2023/09/15 08:43:58;;;;;;;28.30;25.50;;;;;;;19.31;100.00;100918.64;109620;1249;59127;-73
2023/09/15 08:46:26;;;;;;;27.80;24.90;;;;;;;19.32;100.00;100922.25;109730;1250;73854;-74
2023/09/15 08:48:55;;;;;;;27.70;25.20;;;;;;;19.34;100.00;100923.88;109875;1250;63940;-72
2023/09/15 08:51:25;;;;;;;29.70;26.80;;;;;;;19.36;100.00;100923.00;109612;1249;72431;-72
2023/09/15 08:53:56;;;;;;;30.70;27.80;;;;;;;19.40;100.00;100920.63;109675;1250;60457;-73
2023/09/15 08:56:24;;;;;;;30.50;27.70;;;;;;;19.45;100.00;100923.67;109725;1250;58810;-73
2023/09/15 08:58:51;;;;;;;28.40;25.80;;;;;;;19.52;100.00;100919.01;109552;1249;73989;-71
2023/09/15 09:01:19;;;;;;;28.80;26.10;;;;;;;19.60;100.00;100918.98;109757;1249;62488;-71
2023/09/15 09:03:46;;;;;;;29.80;27.00;;;;;;;19.68;100.00;100916.43;109628;1250;71712;-72
2023/09/15 09:06:15;;;;;;;28.70;25.80;;;;;;;19.78;100.00;100919.28;109647;1250;60155;-72
2023/09/15 09:08:45;;;;;;;28.20;25.50;;;;;;;19.85;100.00;100916.98;109727;1249;58786;-72
2023/09/15 09:11:14;;;;;;;29.10;26.40;;;;;;;19.90;100.00;100913.17;109699;1250;74017;-73
2023/09/15 09:13:43;;;;;;;28.70;25.80;;;;;;;19.94;100.00;100915.84;109713;1251;63630;-72
2023/09/15 09:19:38;;;;;;;29.10;26.30;;;;;;;19.99;100.00;100913.52;102884;1286;615876;-73
2023/09/15 09:22:08;;;;;;;29.90;27.20;;;;;;;19.99;100.00;100915.13;104809;1271;62031;-75
2023/09/15 09:24:35;;;;;;;31.40;28.40;;;;;;;20.00;100.00;100915.29;104756;1266;59466;-72
2023/09/15 09:27:09;;;;;;;29.60;26.90;;;;;;;20.00;100.00;100917.16;104835;1270;72242;-73
2023/09/15 09:29:37;;;;;;;29.90;27.00;;;;;;;20.02;100.00;100916.31;105017;1269;62706;-75
2023/09/15 09:32:04;;;;;;;30.60;27.90;;;;;;;20.04;100.00;100916.48;104838;1279;194162;-72
2023/09/15 09:34:34;;;;;;;32.50;29.50;;;;;;;20.06;100.00;100919.13;105250;1270;62054;-75
2023/09/15 09:37:14;;;;;;;33.80;30.50;;;;;;;20.06;100.00;100919.66;105937;1256;60349;-74
2023/09/15 09:39:40;;;;;;;32.80;29.60;;;;;;;20.05;100.00;100919.34;105798;1253;72642;-74
2023/09/15 09:42:07;;;;;;;35.50;32.20;;;;;;;20.04;100.00;100918.43;105701;1253;62155;-75
2023/09/15 09:44:36;;;;;;;32.00;29.10;;;;;;;20.01;100.00;100918.64;105716;1256;72646;-72
2023/09/15 09:47:07;;;;;;;31.50;28.50;;;;;;;20.00;100.00;100917.39;105700;1257;61927;-75
2023/09/15 09:49:35;;;;;;;31.40;28.40;;;;;;;19.97;100.00;100914.45;105768;1259;59733;-74
2023/09/15 09:52:03;;;;;;;33.10;29.70;;;;;;;19.94;100.00;100915.51;105760;1253;73994;-74
2023/09/15 09:54:31;;;;;;;30.70;27.80;;;;;;;19.90;100.00;100913.02;105750;1266;65256;-73
2023/09/15 09:58:45;;;;;;;31.30;28.40;;;;;;;19.86;100.00;100907.89;102937;1291;603763;-74
2023/09/15 10:01:13;;;;;;;33.40;30.10;;;;;;;19.81;100.00;100905.30;104964;1271;60778;-72
2023/09/15 10:03:41;;;;;;;30.80;27.90;;;;;;;19.79;100.00;100906.77;104938;1263;60493;-74
2023/09/15 10:06:08;;;;;;;31.60;28.70;;;;;;;19.78;100.00;100906.70;105296;1264;72359;-74
2023/09/15 10:08:39;;;;;;;28.90;26.40;;;;;;;19.78;100.00;100905.41;105086;1268;63927;-72
2023/09/15 10:11:07;;;;;;;31.50;28.40;;;;;;;19.78;100.00;100906.11;105035;1266;227770;-73
2023/09/15 10:13:34;;;;;;;33.20;29.90;;;;;;;19.79;100.00;100902.16;105159;1263;62061;-73
2023/09/15 10:16:02;;;;;;;31.30;28.40;;;;;;;19.80;100.00;100901.52;105288;1260;60362;-72
2023/09/15 10:18:29;;;;;;;32.10;29.20;;;;;;;19.81;100.00;100909.36;105767;1251;71811;-74
2023/09/15 10:20:56;;;;;;;32.80;29.50;;;;;;;19.81;100.00;100909.73;105764;1254;62719;-74
2023/09/15 10:23:24;;;;;;;33.10;30.00;;;;;;;19.81;100.00;100906.19;105803;1251;72848;-72
2023/09/15 10:25:52;;;;;;;33.20;30.10;;;;;;;19.81;100.00;100906.18;105937;1256;62476;-72
2023/09/15 10:28:23;;;;;;;33.10;29.80;;;;;;;19.80;100.00;100906.30;106005;1255;59589;-74
2023/09/15 10:31:10;;;;;;;33.30;30.10;;;;;;;19.79;100.00;100903.77;105989;1257;73043;-75
2023/09/15 10:33:40;;;;;;;32.40;29.30;;;;;;;19.79;100.00;100903.92;105965;1255;64026;-72
2023/09/15 10:36:08;;;;;;;33.60;30.30;;;;;;;19.80;100.00;100902.23;105812;1256;72576;-72
2023/09/15 10:38:36;;;;;;;33.80;30.50;;;;;;;19.81;100.00;100904.28;105741;1257;62345;-74
2023/09/15 10:41:06;;;;;;;33.70;30.40;;;;;;;19.82;100.00;100906.16;105976;1258;60032;-74
2023/09/15 10:43:33;;;;;;;34.70;31.50;;;;;;;19.83;100.00;100907.23;105887;1258;72211;-74
2023/09/15 10:46:05;;;;;;;38.20;34.40;;;;;;;19.85;100.00;100907.55;105860;1257;63720;-73
2023/09/15 10:48:47;;;;;;;36.00;32.60;;;;;;;19.87;100.00;100908.46;105775;1256;72671;-75
2023/09/15 10:51:17;;;;;;;;;;;;;;;19.90;100.00;100908.02;105964;1252;60322;-76
2023/09/15 10:53:49;;;;;;;35.40;32.10;;;;;;;19.91;100.00;100907.09;105914;1257;59581;-73
2023/09/15 10:56:17;;;;;;;36.60;32.90;;;;;;;19.92;100.00;100903.19;106003;1252;73153;-73
2023/09/15 10:58:48;;;;;;;36.10;32.30;;;;;;;19.95;100.00;100900.45;105987;1256;63521;-74
2023/09/15 11:01:16;;;;;;;37.70;34.00;;;;;;;19.98;100.00;100899.83;105980;1251;73413;-73
2023/09/15 11:03:43;;;;;;;40.40;36.60;;;;;;;20.01;100.00;100893.45;105865;1255;61918;-75
2023/09/15 11:06:11;;;;;;;36.60;33.10;;;;;;;20.06;100.00;100895.98;106019;1251;60236;-72